KGWO

Greenwood-Leflore Airport

Greenwood, Mississippi, USA
METAR KGWO 240153Z AUTO 00000KT 10SM FEW050 FEW070 22/20 A3008 RMK AO2 RAB03E34 SLP183 P0001 T02170200
Observed Flight Rules
May-24 @ 01:53 UTC (23 minutes ago) Visual Flight Rules
Visibility Clouds
10 miles
  • Few at 5,000' AGL
  • Few at 7,000' AGL
Temperatures Readings Precipitation
Current 22°C / 72°F
Dewpoint 20°C / 68°F
Humidity 88%
Altimeter 30.08" Hg
Pressure 1018.3 hPa
Elevation 44
Current Rain 0.01
METAR KGWO 240153Z AUTO 00000KT 10SM FEW050 FEW070 22/20 A3008 RMK AO2 RAB03E34 SLP183 P0001 T02170200
Observed Flight Rules
May-24 @ 01:53 UTC
(23 minutes ago)
VFR
Clouds
  • Few at 5,000' AGL
  • Few at 7,000' AGL
Temperature Dewpoint
22°C / 72°F 20°C / 68°F
Humidity Altimeter Pressure
88% 30.08" Hg 1018.3 hPa
Current Rain
0.01